Hathaway, MT (59333)

6:43 PM MDT on July 28, 2014 (GMT -0600)
Wiley (KMLS) Elev 2628 ft | 46.43 °N, 105.88 °W | Change Station

Current weather conditions updated 50 minutes ago

Clear
Clear
86 °F
Feels Like 86 °F
N
17
Wind Variable Wind from NE

Tomorrow is forecast to be nearly the same temperature as today.

Today
High -- | Low -- °F
--% Chance of Precip.
Yesterday
High -- | Low -- °F
Precip. -- in
5:41 AM 8:40 PM
Waxing Crescent, 4% visible
Pressure 30.12 in
Visibility 10.0 miles
Clouds Clear
Dew Point 45 °F
Humidity 24%
Rainfall 0.00 in
Snow Depth Not available.
UV 2 out of 12
Pollen 6.90 out of 12
Air Quality Not available.
Flu Activity Not available.
METAR KMLS 282353Z AUTO 05015KT 10SM CLR 30/07 A3018 RMK AO2 SLP200 T03000072 10322 20278 56009

More Conditions Fewer Conditions

Pressure 30.12 in
Visibility 10.0 miles
Clouds Clear
Dew Point 45 °F
Humidity 24%
Rainfall 0.00 in
Snow Depth Not available.
UV 2 out of 12
Pollen 6.90 out of 12
Air Quality Not available.
Flu Activity Not available.
METAR KMLS 282353Z AUTO 05015KT 10SM CLR 30/07 A3018 RMK AO2 SLP200 T03000072 10322 20278 56009

More Conditions Fewer Conditions

10-Day Weather Forecast

Almanac

Astronomy

Jul. 28, 2014 Rise Set
Actual Time 5:41 AM MDT 8:40 PM MDT
Civil Twilight 5:06 AM MDT 9:15 PM MDT
Nautical Twilight 4:20 AM MDT 10:00 PM MDT
Astronomical Twilight 3:26 AM MDT 10:54 PM MDT
Moon 7:35 AM MDT (7/28) 9:12 PM MDT (7/28)
Length of Visible Light 16h 09m
Length of Day
14h 58m
Tomorrow will be 2m 25s shorter.
Waxing Crescent, 4% of the Moon is Illuminated
Today
Waxing Crescent
Aug 3
First Quarter
Aug 10
Full
Aug 17
Last Quarter
Aug 25
New

Today's Extremes

State Highs State Lows

Community

WunderPhotos

Upload Photos

1,738,571 photos uploaded!

WunderBlogs® & News

Nearby

Snow Depth

Station Depth Elevation
Crystal Lake 0 in 6050 ft
White Mill 1 in 8700 ft
Northeast Entrance 1 in 7350 ft
Porcupine 0 in 6500 ft
Monument Peak 0 in 8850 ft

Earthquake Activity

City Distance Mag. Time & Date
No recent earthquake activity has been reported nearby.
Minimum magnitude displayed is 2.5.

Coastal Water Temperatures

Place Temperature
No Stations Reporting

Nearby Weather Stations

Station Location Temp. Heat Index Dew Point Humidity Wind Precip. Elev Updated Type
HADS YELLOWSTONE RIVER AT FORSYTH MT, Forsyth, MT 89 °F 86 °F - - North  at  - 0.00 in / hr 2504 ft 5:45 PM MDT MADIS
Forsyth, MT 89.4 °F 86 °F 42 °F 19% East  at  5.9 mph 0.00 in / hr 2776 ft 6:43 PM MDT Rapid Fire

Show More Stations Show Fewer Stations